createdAt,value
2023-03-17T00:01:19.708Z,76.10
2023-03-17T00:03:49.240Z,75.50
2023-03-17T00:06:20.454Z,74.30
2023-03-17T00:08:48.284Z,73.20
2023-03-17T00:11:18.500Z,73.50
2023-03-17T00:13:48.801Z,73.90
2023-03-17T00:16:19.996Z,75.30
2023-03-17T00:18:48.296Z,75.50
2023-03-17T00:21:19.628Z,75.60
2023-03-17T00:23:51.610Z,75.00
2023-03-17T00:26:20.249Z,74.70
2023-03-17T00:28:50.949Z,74.40
2023-03-17T00:31:22.171Z,73.10
2023-03-17T00:33:52.153Z,73.70
2023-03-17T00:36:22.599Z,75.10
2023-03-17T00:38:51.072Z,76.00
2023-03-17T00:41:19.467Z,76.30
2023-03-17T00:43:48.853Z,76.80
2023-03-17T00:46:19.592Z,77.20
2023-03-17T00:48:48.549Z,77.80
2023-03-17T00:51:16.689Z,77.90
2023-03-17T00:53:45.779Z,77.50
2023-03-17T00:56:17.463Z,77.20
2023-03-17T00:58:46.544Z,76.70
2023-03-17T01:01:16.067Z,74.70
2023-03-17T01:03:44.558Z,72.80
2023-03-17T01:06:15.315Z,72.60
2023-03-17T01:08:44.731Z,73.10
2023-03-17T01:11:18.713Z,74.50
2023-03-17T01:13:46.743Z,75.40
2023-03-17T01:16:17.056Z,75.60
2023-03-17T01:18:45.587Z,75.80
2023-03-17T01:21:13.938Z,75.40
2023-03-17T01:23:41.903Z,75.40
2023-03-17T01:26:10.044Z,74.90
2023-03-17T01:28:37.885Z,74.50
2023-03-17T01:31:05.986Z,75.10
2023-03-17T01:33:35.217Z,75.10
2023-03-17T01:36:03.232Z,75.70
2023-03-17T01:38:31.220Z,76.30
2023-03-17T01:40:59.014Z,76.60
2023-03-17T01:43:29.350Z,76.60
2023-03-17T01:46:21.759Z,77.20
2023-03-17T01:49:04.183Z,76.70
2023-03-17T01:51:37.757Z,77.00
2023-03-17T01:54:10.486Z,77.50
2023-03-17T01:56:41.705Z,77.90
2023-03-17T01:59:13.762Z,77.80
2023-03-17T02:01:45.934Z,78.50
2023-03-17T02:04:16.153Z,79.40
2023-03-17T02:06:57.392Z,80.00
2023-03-17T02:09:27.435Z,80.70
2023-03-17T02:11:56.174Z,81.20
2023-03-17T02:14:24.321Z,81.30
2023-03-17T02:16:52.605Z,80.90
2023-03-17T02:19:21.996Z,80.20
2023-03-17T02:21:52.468Z,79.70
2023-03-17T02:24:27.414Z,79.50
2023-03-17T02:26:58.568Z,79.40
2023-03-17T02:29:27.629Z,79.50
2023-03-17T02:31:55.571Z,78.80
2023-03-17T02:34:23.354Z,78.40
2023-03-17T02:36:52.523Z,77.90
2023-03-17T02:39:20.695Z,77.10
2023-03-17T02:41:48.552Z,75.90
2023-03-17T02:44:16.472Z,76.00
2023-03-17T02:46:44.436Z,75.30
2023-03-17T02:49:12.939Z,75.20
2023-03-17T02:51:40.775Z,75.40
2023-03-17T02:54:10.154Z,76.20
2023-03-17T02:56:38.212Z,76.60
2023-03-17T02:59:07.208Z,77.40
2023-03-17T03:01:35.118Z,77.60
2023-03-17T03:04:03.916Z,77.80
2023-03-17T03:06:32.677Z,77.70
2023-03-17T03:09:00.820Z,77.90
2023-03-17T03:11:29.978Z,78.20
2023-03-17T03:13:57.775Z,78.60
2023-03-17T03:16:25.546Z,79.00
2023-03-17T03:18:53.325Z,79.50
2023-03-17T03:21:22.049Z,79.90
2023-03-17T03:23:50.321Z,80.30
2023-03-17T03:26:18.448Z,80.60
2023-03-17T03:28:47.678Z,81.00
2023-03-17T03:31:16.006Z,80.70
2023-03-17T03:33:44.050Z,79.40
2023-03-17T03:36:13.374Z,78.40
2023-03-17T03:38:41.615Z,78.20
2023-03-17T03:41:09.928Z,78.80
2023-03-17T03:43:37.834Z,79.40
2023-03-17T03:46:07.099Z,79.70
2023-03-17T03:48:34.919Z,80.30
2023-03-17T03:51:03.796Z,80.00
2023-03-17T03:53:32.048Z,80.10
2023-03-17T03:55:59.836Z,79.30
2023-03-17T03:58:27.671Z,79.00
2023-03-17T04:00:55.706Z,79.10
2023-03-17T04:03:24.830Z,78.90
2023-03-17T04:05:52.599Z,79.10
2023-03-17T04:08:20.914Z,78.60
2023-03-17T04:10:48.713Z,79.20
2023-03-17T04:13:16.535Z,80.00
2023-03-17T04:15:44.351Z,80.30
2023-03-17T04:18:13.004Z,81.50
2023-03-17T04:20:42.359Z,82.00
2023-03-17T04:23:10.132Z,82.40
2023-03-17T04:25:38.047Z,83.00
2023-03-17T04:28:06.404Z,82.80
2023-03-17T04:30:34.473Z,82.80
2023-03-17T04:33:02.364Z,83.20
2023-03-17T04:35:30.536Z,83.90
2023-03-17T04:37:59.640Z,84.00
2023-03-17T04:40:27.447Z,83.60
2023-03-17T04:42:55.432Z,83.50
2023-03-17T04:45:23.290Z,82.80
2023-03-17T04:47:51.193Z,82.20
2023-03-17T04:50:19.125Z,81.70
2023-03-17T04:52:46.941Z,81.20
2023-03-17T04:55:16.477Z,80.50
2023-03-17T04:57:44.543Z,79.80
2023-03-17T05:00:13.445Z,80.00
2023-03-17T05:02:41.330Z,80.50
2023-03-17T05:05:09.869Z,80.90
2023-03-17T05:07:37.644Z,81.50
2023-03-17T05:10:06.459Z,82.30
2023-03-17T05:12:35.777Z,82.50
2023-03-17T05:15:05.345Z,83.00
2023-03-17T05:17:33.116Z,83.30
2023-03-17T05:20:00.928Z,83.20
2023-03-17T05:22:28.683Z,82.40
2023-03-17T05:24:56.522Z,81.70
2023-03-17T05:27:24.460Z,81.70
2023-03-17T05:29:53.656Z,81.00
2023-03-17T05:32:21.465Z,81.20
2023-03-17T05:34:49.894Z,81.40
2023-03-17T05:37:17.700Z,81.30
2023-03-17T05:39:45.486Z,81.60
2023-03-17T05:42:13.789Z,82.20
2023-03-17T05:44:41.554Z,81.90
2023-03-17T05:47:10.846Z,80.80
2023-03-17T05:49:38.628Z,80.40
2023-03-17T05:52:06.560Z,79.80
2023-03-17T05:54:34.399Z,79.60
2023-03-17T05:57:02.693Z,79.60
2023-03-17T05:59:30.521Z,79.70
2023-03-17T06:01:58.360Z,78.90
2023-03-17T06:04:27.554Z,78.70
2023-03-17T06:06:55.347Z,78.20
2023-03-17T06:09:23.294Z,76.60
2023-03-17T06:11:51.200Z,72.50
2023-03-17T06:14:19.487Z,72.30
2023-03-17T06:16:47.280Z,72.30
2023-03-17T06:19:15.068Z,72.60
2023-03-17T06:21:44.515Z,72.70
2023-03-17T06:24:12.477Z,72.90
2023-03-17T06:26:40.295Z,68.90
2023-03-17T06:29:09.810Z,69.10
2023-03-17T06:31:37.882Z,67.70
2023-03-17T06:34:06.034Z,67.50
2023-03-17T06:36:33.914Z,66.10
2023-03-17T06:39:03.078Z,65.40
2023-03-17T06:41:30.844Z,63.80
2023-03-17T06:43:58.604Z,61.80
2023-03-17T06:46:27.117Z,61.40
2023-03-17T06:48:54.953Z,60.00
2023-03-17T06:51:22.783Z,57.80
2023-03-17T06:53:50.624Z,59.20
2023-03-17T06:56:29.591Z,57.50
2023-03-17T06:58:57.860Z,60.20
2023-03-17T07:01:25.863Z,58.10
2023-03-17T07:03:53.678Z,59.30
2023-03-17T07:06:23.224Z,59.10
2023-03-17T07:08:52.274Z,58.70
2023-03-17T07:11:23.537Z,56.10
2023-03-17T07:13:51.984Z,55.40
2023-03-17T07:16:21.046Z,54.80
2023-03-17T07:18:49.626Z,55.10
2023-03-17T07:21:17.817Z,55.20
2023-03-17T07:23:45.709Z,54.90
2023-03-17T07:26:13.838Z,54.70
2023-03-17T07:28:43.194Z,55.80
2023-03-17T07:31:14.130Z,55.40
2023-03-17T07:33:42.527Z,54.20
2023-03-17T07:36:11.023Z,52.50
2023-03-17T07:38:39.106Z,51.20
2023-03-17T07:41:09.912Z,51.20
2023-03-17T07:43:39.148Z,49.80
2023-03-17T07:46:08.504Z,49.20
2023-03-17T07:48:40.836Z,49.10
2023-03-17T07:51:12.114Z,48.00
2023-03-17T07:53:39.922Z,47.60
2023-03-17T07:56:08.709Z,46.60
2023-03-17T07:58:36.827Z,45.80
2023-03-17T08:01:05.247Z,47.40
2023-03-17T08:03:34.522Z,45.10
2023-03-17T08:06:02.917Z,44.80
2023-03-17T08:08:30.994Z,44.20
2023-03-17T08:11:03.455Z,45.20
2023-03-17T08:13:31.571Z,43.50
2023-03-17T08:15:59.453Z,44.80
2023-03-17T08:18:27.522Z,44.60
2023-03-17T08:20:56.675Z,46.20
2023-03-17T08:23:25.531Z,45.40
2023-03-17T08:25:58.162Z,45.00
2023-03-17T08:28:27.986Z,45.50
2023-03-17T08:30:57.216Z,44.40
2023-03-17T08:33:25.113Z,45.00
2023-03-17T08:35:53.430Z,44.40
2023-03-17T08:38:22.555Z,45.40
2023-03-17T08:40:50.884Z,46.10
2023-03-17T08:43:18.814Z,45.90
2023-03-17T08:45:46.742Z,45.70
2023-03-17T08:48:15.218Z,46.10
2023-03-17T08:50:43.036Z,47.20
2023-03-17T08:53:10.934Z,47.30
2023-03-17T08:55:40.025Z,46.80
2023-03-17T08:58:08.228Z,46.30
2023-03-17T09:00:36.026Z,45.70
2023-03-17T09:03:03.937Z,45.10
2023-03-17T09:05:32.691Z,44.70
2023-03-17T09:08:01.264Z,43.70
2023-03-17T09:10:29.364Z,42.00
2023-03-17T09:13:03.035Z,42.30
2023-03-17T09:15:31.304Z,42.00
2023-03-17T09:17:59.198Z,43.30
2023-03-17T09:20:27.331Z,43.00
2023-03-17T09:22:56.371Z,44.00
2023-03-17T09:25:24.633Z,45.20
2023-03-17T09:27:52.417Z,44.70
2023-03-17T09:30:21.831Z,45.90
2023-03-17T09:32:49.849Z,47.20
2023-03-17T09:35:18.170Z,48.20
2023-03-17T09:37:46.574Z,48.10
2023-03-17T09:40:18.915Z,47.70
2023-03-17T09:43:01.551Z,46.60
2023-03-17T09:45:36.228Z,45.30
2023-03-17T09:48:29.550Z,44.30
2023-03-17T09:50:59.859Z,44.40
2023-03-17T09:53:34.145Z,44.50
2023-03-17T09:56:07.517Z,43.30
2023-03-17T09:58:37.419Z,41.40
2023-03-17T10:01:06.885Z,41.90
2023-03-17T10:03:35.072Z,41.60
2023-03-17T10:06:18.599Z,40.00
2023-03-17T10:08:54.838Z,39.80
2023-03-17T10:11:33.185Z,39.60
2023-03-17T10:14:05.380Z,39.40
2023-03-17T10:16:45.779Z,38.60
2023-03-17T10:19:22.422Z,39.10
2023-03-17T10:21:54.717Z,38.30
2023-03-17T10:24:24.166Z,37.90
2023-03-17T10:26:53.203Z,38.00
2023-03-17T10:29:23.806Z,37.30
2023-03-17T10:31:56.969Z,38.20
2023-03-17T10:34:28.615Z,37.00
2023-03-17T10:37:01.393Z,39.10
2023-03-17T10:39:32.172Z,38.50
2023-03-17T10:42:08.389Z,36.80
2023-03-17T10:44:44.249Z,36.20
2023-03-17T10:47:31.636Z,38.80
2023-03-17T10:50:06.408Z,38.40
2023-03-17T10:52:39.513Z,37.80
2023-03-17T10:55:09.095Z,39.10
2023-03-17T10:57:38.885Z,39.70
2023-03-17T11:00:16.750Z,38.30
2023-03-17T11:02:51.623Z,38.30
2023-03-17T11:05:22.092Z,38.20
2023-03-17T11:07:50.295Z,38.20
2023-03-17T11:10:22.007Z,39.10
2023-03-17T11:12:57.544Z,38.90
2023-03-17T11:15:29.669Z,37.90
2023-03-17T11:18:00.380Z,37.90
2023-03-17T11:20:40.969Z,37.10
2023-03-17T11:23:17.540Z,36.80
2023-03-17T11:25:49.614Z,35.30
2023-03-17T11:28:22.521Z,37.20
2023-03-17T11:31:01.227Z,37.20
2023-03-17T11:33:43.616Z,38.90
2023-03-17T11:36:23.538Z,39.50
2023-03-17T11:39:00.152Z,39.00
2023-03-17T11:41:41.685Z,40.90
2023-03-17T11:44:40.696Z,38.80
2023-03-17T11:47:19.091Z,37.80
2023-03-17T11:49:58.496Z,37.30
2023-03-17T11:52:30.296Z,37.70
2023-03-17T11:55:08.661Z,38.40
2023-03-17T11:57:42.907Z,37.00
2023-03-17T12:00:19.676Z,37.80
2023-03-17T12:02:56.314Z,37.70
2023-03-17T12:05:27.435Z,37.70
2023-03-17T12:07:59.542Z,37.50
2023-03-17T12:10:34.442Z,37.30
2023-03-17T12:13:09.099Z,37.20
2023-03-17T12:15:40.770Z,37.80
2023-03-17T12:18:15.508Z,38.00
2023-03-17T12:20:51.860Z,37.40
2023-03-17T12:23:29.932Z,38.50
2023-03-17T12:26:03.703Z,38.80
2023-03-17T12:28:37.523Z,37.90
2023-03-17T12:31:08.628Z,37.10
2023-03-17T12:33:45.437Z,37.70
2023-03-17T12:36:17.522Z,36.50
2023-03-17T12:38:49.193Z,37.10
2023-03-17T12:41:38.177Z,37.70
2023-03-17T12:44:11.162Z,37.80
2023-03-17T12:47:06.150Z,37.60
2023-03-17T12:49:56.975Z,36.90
2023-03-17T12:52:38.430Z,36.70
2023-03-17T12:55:13.242Z,36.20
2023-03-17T12:57:46.388Z,36.20
2023-03-17T13:00:21.224Z,35.90
2023-03-17T13:02:51.782Z,35.50
2023-03-17T13:05:29.813Z,35.90
2023-03-17T13:08:02.668Z,36.20
2023-03-17T13:10:40.766Z,36.20
2023-03-17T13:13:28.097Z,36.20
2023-03-17T13:16:00.886Z,36.60
2023-03-17T13:18:50.372Z,36.20
2023-03-17T13:21:26.240Z,38.50
2023-03-17T13:24:19.779Z,36.40
2023-03-17T13:27:00.860Z,36.90
2023-03-17T13:29:41.802Z,36.90
2023-03-17T13:32:34.860Z,37.00
2023-03-17T13:35:20.064Z,36.90
2023-03-17T13:38:17.357Z,36.40
2023-03-17T13:41:06.781Z,36.60
2023-03-17T13:43:49.884Z,36.40
2023-03-17T13:46:26.570Z,34.60
2023-03-17T13:48:56.290Z,36.00
2023-03-17T13:51:26.177Z,35.40
2023-03-17T13:53:56.892Z,34.90
2023-03-17T13:56:30.324Z,36.00
2023-03-17T13:59:13.367Z,36.30
2023-03-17T14:01:46.789Z,35.60
2023-03-17T14:04:20.879Z,36.50
2023-03-17T14:06:52.480Z,36.30
2023-03-17T14:09:34.490Z,35.60
2023-03-17T14:12:07.563Z,35.50
2023-03-17T14:14:43.372Z,35.00
2023-03-17T14:17:15.440Z,34.40
2023-03-17T14:20:01.170Z,34.60
2023-03-17T14:22:29.268Z,34.90
2023-03-17T14:25:01.446Z,31.90
2023-03-17T14:27:33.932Z,32.90
2023-03-17T14:30:08.712Z,33.00
2023-03-17T14:32:36.620Z,31.90
2023-03-17T14:35:04.843Z,32.10
2023-03-17T14:37:32.621Z,32.10
2023-03-17T14:40:00.453Z,32.60
2023-03-17T14:42:31.362Z,32.60
2023-03-17T14:45:03.484Z,33.10
2023-03-17T14:47:38.160Z,32.70
2023-03-17T14:50:12.684Z,33.10
2023-03-17T14:52:41.184Z,33.40
2023-03-17T14:55:14.364Z,33.40
2023-03-17T14:57:48.232Z,34.30
2023-03-17T15:00:45.886Z,33.00
2023-03-17T15:03:22.536Z,33.00
2023-03-17T15:05:51.551Z,33.40
2023-03-17T15:08:45.933Z,33.80
2023-03-17T15:11:23.248Z,33.80
2023-03-17T15:13:56.857Z,33.90
2023-03-17T15:16:29.318Z,33.90
2023-03-17T15:19:06.638Z,34.20
2023-03-17T15:21:38.613Z,34.90
2023-03-17T15:24:20.405Z,34.40
2023-03-17T15:26:48.281Z,33.80
2023-03-17T15:29:17.410Z,32.70
2023-03-17T15:31:45.570Z,33.10
2023-03-17T15:34:14.894Z,32.80
2023-03-17T15:36:43.442Z,33.20
2023-03-17T15:39:11.522Z,33.70
2023-03-17T15:41:39.285Z,32.60
2023-03-17T15:44:07.223Z,31.80
2023-03-17T15:46:36.681Z,31.80
2023-03-17T15:49:11.572Z,32.10
2023-03-17T15:51:39.803Z,31.80
2023-03-17T15:54:07.600Z,33.40
2023-03-17T15:56:35.493Z,33.20
2023-03-17T15:59:03.376Z,32.80
2023-03-17T16:01:31.289Z,33.00
2023-03-17T16:04:00.471Z,33.40
2023-03-17T16:06:28.376Z,34.30
2023-03-17T16:08:56.168Z,34.80
2023-03-17T16:11:28.230Z,35.20
2023-03-17T16:13:56.426Z,35.50
2023-03-17T16:16:38.051Z,35.70
2023-03-17T16:19:09.072Z,36.80
2023-03-17T16:21:38.081Z,37.10
2023-03-17T16:24:06.740Z,38.40
2023-03-17T16:26:34.528Z,38.90
2023-03-17T16:29:02.547Z,39.10
2023-03-17T16:31:30.867Z,38.10
2023-03-17T16:33:58.936Z,37.40
2023-03-17T16:36:28.182Z,37.40
2023-03-17T16:38:56.004Z,37.80
2023-03-17T16:41:25.984Z,38.30
2023-03-17T16:43:58.667Z,39.00
2023-03-17T16:46:28.713Z,41.50
2023-03-17T16:48:56.530Z,43.70
2023-03-17T16:51:25.712Z,43.60
2023-03-17T16:53:54.876Z,43.30
2023-03-17T16:56:25.657Z,43.40
2023-03-17T16:58:53.656Z,42.70
2023-03-17T17:01:24.374Z,40.60
2023-03-17T17:03:52.405Z,40.40
2023-03-17T17:06:22.256Z,40.60
2023-03-17T17:08:51.372Z,40.60
2023-03-17T17:11:21.576Z,41.20
2023-03-17T17:13:51.606Z,41.40
2023-03-17T17:16:26.506Z,41.40
2023-03-17T17:18:54.655Z,40.70
2023-03-17T17:21:22.605Z,41.90
2023-03-17T17:23:52.754Z,43.80
2023-03-17T17:26:22.485Z,44.00
2023-03-17T17:28:50.640Z,44.80
2023-03-17T17:31:18.494Z,46.00
2023-03-17T17:33:46.389Z,46.80
2023-03-17T17:36:16.252Z,47.20
2023-03-17T17:38:44.528Z,47.60
2023-03-17T17:41:13.697Z,47.40
2023-03-17T17:43:42.921Z,47.90
2023-03-17T17:46:12.793Z,48.90
2023-03-17T17:48:41.100Z,48.40
2023-03-17T17:51:08.972Z,48.70
2023-03-17T17:53:37.116Z,48.00
2023-03-17T17:56:05.620Z,47.90
2023-03-17T17:58:33.400Z,49.20
2023-03-17T18:01:04.633Z,50.20
2023-03-17T18:03:32.674Z,49.80
2023-03-17T18:06:00.836Z,48.70
2023-03-17T18:08:28.616Z,49.80
2023-03-17T18:10:57.249Z,50.20
2023-03-17T18:13:25.334Z,49.10
2023-03-17T18:15:53.278Z,49.20
2023-03-17T18:18:22.388Z,50.50
2023-03-17T18:20:50.830Z,50.70
2023-03-17T18:23:20.147Z,50.00
2023-03-17T18:25:48.147Z,51.10
2023-03-17T18:28:16.253Z,52.50
2023-03-17T18:30:45.488Z,53.20
2023-03-17T18:33:19.325Z,53.10
2023-03-17T18:35:50.186Z,52.60
2023-03-17T18:38:18.114Z,54.80
2023-03-17T18:40:46.278Z,55.70
2023-03-17T18:43:14.083Z,56.90
2023-03-17T18:45:41.904Z,58.00
2023-03-17T18:48:09.694Z,59.30
2023-03-17T18:50:37.679Z,60.00
2023-03-17T18:53:06.862Z,60.40
2023-03-17T18:55:34.706Z,59.70
2023-03-17T18:58:02.748Z,59.30
2023-03-17T19:00:30.893Z,59.00
2023-03-17T19:02:58.894Z,59.20
2023-03-17T19:05:27.151Z,59.90
2023-03-17T19:07:54.973Z,60.20
2023-03-17T19:10:24.112Z,60.40
2023-03-17T19:12:52.226Z,60.60
2023-03-17T19:15:20.653Z,61.40
2023-03-17T19:17:50.220Z,61.30
2023-03-17T19:20:18.666Z,61.90
2023-03-17T19:22:46.485Z,61.70
2023-03-17T19:25:14.450Z,61.10
2023-03-17T19:27:43.578Z,59.20
2023-03-17T19:30:12.932Z,60.00
2023-03-17T19:32:40.759Z,60.00
2023-03-17T19:35:09.400Z,59.80
2023-03-17T19:37:38.082Z,59.20
2023-03-17T19:40:08.107Z,58.60
2023-03-17T19:42:35.940Z,58.30
2023-03-17T19:45:06.019Z,58.00
2023-03-17T19:47:33.812Z,57.50
2023-03-17T19:50:01.863Z,57.50
2023-03-17T19:52:29.657Z,57.40
2023-03-17T19:54:57.952Z,57.80
2023-03-17T19:57:26.321Z,58.30
2023-03-17T19:59:54.192Z,58.70
2023-03-17T20:02:23.298Z,58.90
2023-03-17T20:04:51.273Z,59.40
2023-03-17T20:07:19.204Z,59.70
2023-03-17T20:09:48.480Z,60.30
2023-03-17T20:12:16.392Z,61.10
2023-03-17T20:14:44.164Z,62.10
2023-03-17T20:17:12.027Z,62.50
2023-03-17T20:19:41.330Z,63.00
2023-03-17T20:22:09.227Z,63.30
2023-03-17T20:24:38.230Z,63.60
2023-03-17T20:27:06.986Z,63.70
2023-03-17T20:29:34.898Z,64.10
2023-03-17T20:32:02.681Z,63.80
2023-03-17T20:34:31.779Z,63.80
2023-03-17T20:37:01.483Z,63.50
2023-03-17T20:39:29.475Z,63.90
2023-03-17T20:41:57.341Z,63.90
2023-03-17T20:44:25.485Z,63.80
2023-03-17T20:46:54.325Z,63.70
2023-03-17T20:49:22.159Z,63.90
2023-03-17T20:51:50.060Z,64.00
2023-03-17T20:54:19.965Z,64.20
2023-03-17T20:56:52.253Z,64.50
2023-03-17T20:59:20.194Z,65.10
2023-03-17T21:01:48.078Z,65.10
2023-03-17T21:04:17.229Z,65.20
2023-03-17T21:06:45.111Z,65.50
2023-03-17T21:09:13.229Z,66.00
2023-03-17T21:11:42.938Z,66.40
2023-03-17T21:14:13.393Z,66.80
2023-03-17T21:16:42.642Z,66.70
2023-03-17T21:19:14.428Z,66.60
2023-03-17T21:21:43.008Z,66.70
2023-03-17T21:24:27.452Z,67.00
2023-03-17T21:26:56.596Z,66.90
2023-03-17T21:29:24.472Z,67.50
2023-03-17T21:31:52.827Z,67.40
2023-03-17T21:34:20.670Z,67.20
2023-03-17T21:36:48.459Z,67.50
2023-03-17T21:39:16.630Z,68.10
2023-03-17T21:41:44.916Z,68.70
2023-03-17T21:44:15.841Z,69.90
2023-03-17T21:46:45.019Z,70.40
2023-03-17T21:49:13.239Z,70.40
2023-03-17T21:51:41.074Z,70.40
2023-03-17T21:54:08.855Z,70.50
2023-03-17T21:56:36.764Z,70.60
2023-03-17T21:59:05.696Z,71.00
2023-03-17T22:01:35.586Z,70.80
2023-03-17T22:04:03.476Z,70.80
2023-03-17T22:06:31.283Z,70.80
2023-03-17T22:08:59.274Z,71.50
2023-03-17T22:11:27.448Z,72.10
2023-03-17T22:13:55.772Z,70.60
2023-03-17T22:16:23.589Z,70.50
2023-03-17T22:18:52.840Z,70.40
2023-03-17T22:21:21.418Z,71.50
2023-03-17T22:23:49.624Z,71.30
2023-03-17T22:26:19.851Z,72.00
2023-03-17T22:28:49.566Z,72.50
2023-03-17T22:31:20.119Z,72.60
2023-03-17T22:33:49.186Z,69.80
2023-03-17T22:36:18.349Z,71.20
2023-03-17T22:38:46.785Z,71.50
2023-03-17T22:41:16.628Z,70.70
2023-03-17T22:43:45.312Z,66.80
2023-03-17T22:46:13.916Z,64.40
2023-03-17T22:48:41.836Z,66.20
2023-03-17T22:51:11.451Z,67.20
2023-03-17T22:53:41.296Z,69.20
2023-03-17T22:56:10.867Z,70.20
2023-03-17T22:58:39.220Z,70.90
2023-03-17T23:01:08.110Z,71.90
2023-03-17T23:03:37.086Z,71.00
2023-03-17T23:06:06.032Z,71.50
2023-03-17T23:08:36.048Z,71.50
2023-03-17T23:11:07.440Z,69.20
2023-03-17T23:13:36.259Z,67.30
2023-03-17T23:16:06.439Z,65.70
2023-03-17T23:18:34.681Z,65.10
2023-03-17T23:21:03.522Z,63.10
2023-03-17T23:23:31.759Z,61.90
2023-03-17T23:25:59.717Z,59.60
2023-03-17T23:28:29.051Z,57.50
2023-03-17T23:30:56.901Z,57.90
2023-03-17T23:33:25.578Z,56.00
2023-03-17T23:35:53.959Z,54.70
2023-03-17T23:38:22.023Z,53.10
2023-03-17T23:40:50.812Z,51.60
2023-03-17T23:43:19.497Z,50.80
2023-03-17T23:45:52.523Z,50.60
2023-03-17T23:48:21.619Z,49.80
2023-03-17T23:50:52.629Z,49.70
2023-03-17T23:53:20.938Z,49.70
2023-03-17T23:55:48.880Z,49.90
2023-03-17T23:58:16.939Z,49.50
